Dobrodošli na spletni strani vremenske postaje Senovo. Vse informacije so informativnega značaja, saj vremenska postaja ni del državne mreže meteoroloških postaj. AKTUALNIH OBVESTIL NI.


Posebna pozornost v zvezi z vremenskimi dogajanji ni potrebna.    Posebna pozornost v zvezi z vremenskimi dogajanji ni potrebna.

Pogled proti Armezu več informacij Pogled proti Armezu


Bohor več informacij Bohor


Radar strel več informacij blitzortung!


Radar padavin več informacij rain snow radar


Obiščite še:

Template documentation
and downloads

And another site



Weather Underground, zgodovina - Tekstovno

Dnevni povzetek za September 3, 2017 Enote:  Angleško    Metrično   Obe
« Predhodni Dan
Naslednji Dan »
Dnevni Tedenski Mesečni Letni Po meri
  Višja: Nižja: Povprečje:
Temperatura: TemperatureC °F 9.4 °F 14.7 °F
Točka rosišča: DewpointC °F 8.0 °F 10.5 °F
Vlažnost: Humidity % 49 % 77 %
Hitrost vetra: WindSpeedKMH mph 0.0 mph 3 mph
Sunki vetra: WindSpeedGustKMH mph - -
Veter:- - SSE
Zračni tlak: PressurehPa in 1009.0 in -
Padavine: 0.5 in    
Historical Graphs
 
 
Tabelarni podarki za September 3, 2017
Čas Temperatura Točka rosišča Zračni tlak Veter Hitrost vetra Sunki vetra Vlažnost Intenziteta padavin (urna)
TemperatureC °F DewpointC °F PressurehPa in Calm     Humidity % HourlyPrecipMM in
00:01 14.0 °F 12.9 °F 1011.1 in NE 6.9 mph 20.1 mph 93 % 0.0 in
00:06 14.0 °F 12.7 °F 1011.1 in NE 7.6 mph 20.6 mph 92 % 0.0 in
00:11 13.9 °F 12.4 °F 1012.1 in NNE 7.2 mph 20.6 mph 91 % 0.0 in
00:16 13.8 °F 12.2 °F 1012.1 in NNE 7.6 mph 19.5 mph 90 % 0.0 in
00:21 13.8 °F 12.0 °F 1012.1 in NE 9.3 mph 19.5 mph 89 % 0.0 in
00:26 13.8 °F 11.8 °F 1011.1 in NE 9.3 mph 20.9 mph 88 % 0.0 in
00:32 13.8 °F 11.7 °F 1011.1 in NE 8.4 mph 20.9 mph 87 % 0.0 in
00:37 13.7 °F 11.4 °F 1011.1 in ENE 7.2 mph 16.3 mph 86 % 0.0 in
00:42 13.7 °F 11.2 °F 1011.1 in ENE 7.2 mph 20.6 mph 85 % 0.0 in
00:46 13.7 °F 11.2 °F 1011.1 in NE 8.5 mph 20.6 mph 85 % 0.0 in
00:51 13.7 °F 11.1 °F 1011.1 in NE 8.4 mph 20.1 mph 84 % 0.0 in
00:57 13.6 °F 10.9 °F 1012.1 in NE 7.6 mph 17.7 mph 84 % 0.0 in
01:02 13.6 °F 10.9 °F 1012.1 in ENE 8.7 mph 17.7 mph 84 % 0.0 in
01:07 13.6 °F 10.9 °F 1012.1 in ENE 10.1 mph 32.0 mph 84 % 0.0 in
01:12 13.6 °F 10.8 °F 1011.1 in ENE 10.5 mph 32.0 mph 83 % 0.0 in
01:17 13.6 °F 10.9 °F 1011.1 in ENE 7.7 mph 19.8 mph 84 % 0.0 in
01:22 13.5 °F 10.7 °F 1011.1 in NE 7.2 mph 21.2 mph 83 % 0.0 in
01:27 13.6 °F 10.8 °F 1011.1 in ENE 9.8 mph 21.2 mph 83 % 0.0 in
01:32 13.5 °F 10.7 °F 1011.1 in ENE 8.7 mph 16.9 mph 83 % 0.0 in
01:37 13.5 °F 10.7 °F 1011.1 in ENE 6.9 mph 16.9 mph 83 % 0.0 in
01:42 13.5 °F 10.7 °F 1010.0 in ENE 5.1 mph 13.7 mph 83 % 0.0 in
01:47 13.5 °F 10.7 °F 1010.0 in ENE 5.8 mph 17.2 mph 83 % 0.0 in
01:52 13.5 °F 10.7 °F 1010.0 in NE 7.4 mph 19.8 mph 83 % 0.0 in
01:57 13.6 °F 10.6 °F 1010.0 in ENE 7.2 mph 19.8 mph 82 % 0.0 in
02:02 13.6 °F 10.6 °F 1010.0 in ENE 6.3 mph 11.9 mph 82 % 0.0 in
02:07 13.7 °F 10.7 °F 1010.0 in ENE 5.5 mph 11.9 mph 82 % 0.0 in
02:12 13.7 °F 10.5 °F 1010.0 in ENE 5.6 mph 13.0 mph 81 % 0.0 in
02:17 13.7 °F 10.7 °F 1010.0 in ENE 6.0 mph 13.0 mph 82 % 0.0 in
02:22 13.7 °F 10.5 °F 1010.0 in ENE 6.3 mph 14.0 mph 81 % 0.0 in
02:27 13.8 °F 10.6 °F 1011.1 in ENE 6.4 mph 14.0 mph 81 % 0.0 in
02:32 13.8 °F 10.6 °F 1011.1 in ENE 6.3 mph 13.0 mph 81 % 0.0 in
02:37 13.8 °F 10.4 °F 1011.1 in ENE 6.0 mph 13.0 mph 80 % 0.0 in
02:42 13.8 °F 10.4 °F 1010.0 in East 5.8 mph 9.7 mph 80 % 0.0 in
02:47 13.8 °F 10.4 °F 1010.0 in East 6.3 mph 15.4 mph 80 % 0.0 in
02:52 13.8 °F 10.4 °F 1010.0 in East 7.2 mph 15.4 mph 80 % 0.0 in
02:56 13.8 °F 10.4 °F 1010.0 in East 7.2 mph 15.4 mph 80 % 0.0 in
03:01 13.8 °F 10.2 °F 1010.0 in East 6.4 mph 15.8 mph 79 % 0.0 in
03:06 13.8 °F 10.2 °F 1010.0 in East 5.8 mph 19.8 mph 79 % 0.0 in
03:11 13.9 °F 10.3 °F 1010.0 in ENE 5.8 mph 19.8 mph 79 % 0.0 in
03:16 13.8 °F 10.2 °F 1010.0 in East 7.6 mph 17.7 mph 79 % 0.0 in
03:21 13.8 °F 10.2 °F 1010.0 in ESE 7.6 mph 17.7 mph 79 % 0.0 in
03:26 13.8 °F 10.4 °F 1010.0 in SE 4.0 mph 9.0 mph 80 % 0.0 in
03:31 13.7 °F 10.5 °F 1010.0 in SE 4.2 mph 10.1 mph 81 % 0.0 in
03:36 13.7 °F 10.5 °F 1010.0 in SE 4.5 mph 10.1 mph 81 % 0.0 in
03:41 13.6 °F 10.6 °F 1010.0 in SE 2.9 mph 6.1 mph 82 % 0.0 in
03:46 13.5 °F 10.5 °F 1010.0 in SSE 3.5 mph 6.9 mph 82 % 0.0 in
03:51 13.5 °F 10.7 °F 1010.0 in SSE 4.5 mph 6.9 mph 83 % 0.0 in
03:56 13.4 °F 10.6 °F 1010.0 in SSW 4.0 mph 6.9 mph 83 % 0.0 in
04:01 13.4 °F 10.8 °F 1010.0 in SW 1.9 mph 6.1 mph 84 % 0.0 in
04:06 13.3 °F 10.7 °F 1010.0 in SSW 0.5 mph 2.6 mph 84 % 0.0 in
04:11 13.3 °F 10.7 °F 1010.0 in NW 1.1 mph 5.5 mph 84 % 0.0 in
04:16 13.2 °F 10.7 °F 1010.0 in NW 2.9 mph 5.8 mph 85 % 0.0 in
04:21 13.1 °F 10.8 °F 1010.0 in NW 2.6 mph 5.8 mph 86 % 0.0 in
04:26 13.1 °F 10.8 °F 1010.0 in NW 0.6 mph 3.5 mph 86 % 0.0 in
04:31 13.0 °F 10.9 °F 1010.0 in Calm     87 % 0.0 in
04:36 13.0 °F 10.9 °F 1010.0 in Calm   1.4 mph 87 % 0.0 in
04:41 12.9 °F 10.9 °F 1010.0 in West 0.5 mph 3.5 mph 88 % 0.0 in
04:46 12.9 °F 10.9 °F 1010.0 in West 0.5 mph 3.5 mph 88 % 0.0 in
04:51 12.9 °F 11.1 °F 1010.0 in Calm     89 % 0.0 in
04:56 12.8 °F 11.1 °F 1009.0 in Calm     89 % 0.0 in
05:01 12.8 °F 11.2 °F 1009.0 in Calm     90 % 0.0 in
05:06 12.7 °F 11.1 °F 1009.0 in Calm     90 % 0.0 in
05:11 12.7 °F 11.1 °F 1010.0 in Calm     90 % 0.0 in
05:17 12.7 °F 11.3 °F 1010.0 in Calm     91 % 0.0 in
05:20 12.7 °F 11.3 °F 1010.0 in SE 0.3 mph 3.2 mph 91 % 0.0 in
05:23 12.7 °F 11.3 °F 1010.0 in SE 0.3 mph 3.2 mph 91 % 0.0 in
05:25 12.7 °F 11.3 °F 1009.0 in SE 0.3 mph 3.2 mph 91 % 0.0 in
05:30 12.7 °F 11.3 °F 1009.0 in Calm     91 % 0.0 in
05:35 12.7 °F 11.3 °F 1009.0 in Calm     91 % 0.0 in
05:40 12.7 °F 11.3 °F 1009.0 in Calm     91 % 0.0 in
05:45 12.6 °F 11.2 °F 1009.0 in SSW 1.0 mph 4.0 mph 91 % 0.0 in
05:55 12.6 °F 11.2 °F 1009.0 in SSW 0.2 mph 1.8 mph 91 % 0.0 in
06:00 12.5 °F 11.1 °F 1009.0 in Calm     91 % 0.0 in
06:05 12.5 °F 11.2 °F 1009.0 in Calm     92 % 0.0 in
06:10 12.5 °F 11.2 °F 1011.1 in Calm     92 % 0.0 in
06:15 12.5 °F 11.2 °F 1011.1 in Calm     92 % 0.0 in
06:20 12.5 °F 11.2 °F 1011.1 in Calm     92 % 0.0 in
06:25 12.4 °F 11.1 °F 1010.0 in Calm     92 % 0.0 in
06:30 12.4 °F 11.1 °F 1010.0 in SSW 0.6 mph 4.0 mph 92 % 0.0 in
06:35 12.4 °F 11.1 °F 1010.0 in SSW 0.6 mph 4.0 mph 92 % 0.0 in
06:40 12.4 °F 11.3 °F 1010.0 in SSW 0.3 mph 3.5 mph 93 % 0.0 in
06:45 12.3 °F 11.2 °F 1010.0 in SSW 0.5 mph 3.5 mph 93 % 0.0 in
06:50 12.3 °F 11.2 °F 1010.0 in SSW 0.2 mph 2.6 mph 93 % 0.0 in
06:55 12.3 °F 11.2 °F 1010.0 in Calm   1.4 mph 93 % 0.0 in
07:00 12.3 °F 11.2 °F 1010.0 in WSW 1.1 mph 5.5 mph 93 % 0.0 in
07:05 12.3 °F 11.2 °F 1010.0 in WNW 2.3 mph 5.5 mph 93 % 0.0 in
07:10 12.3 °F 11.2 °F 1010.0 in SW 2.6 mph 5.5 mph 93 % 0.0 in
07:15 12.3 °F 11.2 °F 1010.0 in SW 2.4 mph 5.5 mph 93 % 0.0 in
07:20 12.4 °F 11.3 °F 1010.0 in NNW 1.9 mph 4.7 mph 93 % 0.0 in
07:25 12.4 °F 11.4 °F 1009.0 in North 1.3 mph 4.3 mph 94 % 0.0 in
07:32 12.4 °F 11.4 °F 1009.0 in WNW 2.4 mph 4.3 mph 94 % 0.0 in
07:37 12.4 °F 11.4 °F 1009.0 in West 1.9 mph 3.5 mph 94 % 0.0 in
07:43 12.5 °F 11.6 °F 1009.0 in West 1.8 mph 3.5 mph 94 % 0.0 in
07:48 12.6 °F 11.7 °F 1010.0 in Calm     94 % 0.0 in
07:53 12.7 °F 11.8 °F 1010.0 in WSW 0.3 mph 4.7 mph 94 % 0.0 in
07:58 12.8 °F 11.8 °F 1009.0 in West 0.6 mph 4.7 mph 94 % 0.0 in
08:03 12.9 °F 11.9 °F 1009.0 in West 0.5 mph 4.3 mph 94 % 0.0 in
08:08 13.0 °F 12.1 °F 1009.0 in SSW 0.5 mph 3.5 mph 94 % 0.0 in
08:13 13.2 °F 12.3 °F 1010.0 in WSW 2.3 mph 5.8 mph 94 % 0.0 in
08:18 13.3 °F 12.3 °F 1010.0 in West 3.1 mph 6.9 mph 94 % 0.0 in
08:23 13.5 °F 12.4 °F 1010.0 in WNW 3.5 mph 6.9 mph 93 % 0.0 in
08:28 13.6 °F 12.5 °F 1010.0 in WNW 3.9 mph 5.8 mph 93 % 0.0 in
08:33 13.7 °F 12.6 °F 1010.0 in WNW 2.6 mph 5.8 mph 93 % 0.0 in
08:38 13.7 °F 12.4 °F 1010.0 in West 1.8 mph 6.1 mph 92 % 0.0 in
08:43 13.8 °F 12.5 °F 1009.0 in SW 3.7 mph 6.1 mph 92 % 0.0 in
08:48 13.8 °F 12.5 °F 1009.0 in SW 3.5 mph 6.1 mph 92 % 0.0 in
08:53 13.8 °F 12.5 °F 1009.0 in SSW 3.9 mph 5.5 mph 92 % 0.3 in
08:58 14.1 °F 12.7 °F 1009.0 in SW 4.3 mph 5.5 mph 91 % 0.3 in
09:03 14.2 °F 12.8 °F 1009.0 in SW 4.3 mph 6.4 mph 91 % 0.3 in
09:08 14.3 °F 12.8 °F 1009.0 in SW 4.7 mph 7.9 mph 91 % 0.3 in
09:13 14.3 °F 12.5 °F 1010.0 in SW 4.7 mph 8.7 mph 89 % 0.3 in
09:18 14.4 °F 12.6 °F 1010.0 in WSW 4.2 mph 8.7 mph 89 % 0.3 in
09:23 14.5 °F 12.6 °F 1010.0 in West 4.2 mph 7.6 mph 88 % 0.3 in
09:28 14.5 °F 12.6 °F 1010.0 in West 4.3 mph 6.4 mph 88 % 0.3 in
09:33 14.6 °F 12.4 °F 1010.0 in WSW 3.9 mph 6.4 mph 87 % 0.3 in
09:38 14.8 °F 12.5 °F 1010.0 in WSW 3.2 mph 6.1 mph 86 % 0.3 in
09:43 14.9 °F 12.4 °F 1010.0 in WSW 3.1 mph 8.7 mph 85 % 0.3 in
09:48 14.9 °F 12.2 °F 1010.0 in WSW 3.9 mph 8.7 mph 84 % 0.3 in
09:53 14.9 °F 12.2 °F 1010.0 in WSW 3.9 mph 8.7 mph 84 % 0.0 in
09:58 15.1 °F 12.2 °F 1010.0 in SW 3.9 mph 6.9 mph 83 % 0.0 in
10:03 15.3 °F 12.2 °F 1010.0 in SW 2.6 mph 6.9 mph 82 % 0.0 in
10:08 15.4 °F 12.2 °F 1010.0 in SSW 1.9 mph 6.1 mph 81 % 0.0 in
10:13 15.7 °F 12.4 °F 1010.0 in South 3.1 mph 7.6 mph 81 % 0.0 in
10:18 15.9 °F 12.4 °F 1010.0 in SE 5.6 mph 9.0 mph 80 % 0.0 in
10:23 16.0 °F 11.8 °F 1010.0 in East 5.5 mph 9.3 mph 76 % 0.0 in
10:28 16.2 °F 11.8 °F 1010.0 in SE 4.7 mph 9.7 mph 75 % 0.0 in
10:33 16.3 °F 11.4 °F 1010.0 in SSW 3.5 mph 9.7 mph 73 % 0.0 in
10:38 16.4 °F 11.3 °F 1010.0 in WNW 3.7 mph 9.0 mph 72 % 0.0 in
10:43 16.5 °F 11.2 °F 1011.1 in WSW 4.0 mph 9.7 mph 71 % 0.0 in
10:48 16.6 °F 11.1 °F 1011.1 in WSW 5.3 mph 11.9 mph 70 % 0.0 in
10:53 16.7 °F 11.4 °F 1011.1 in SSW 5.8 mph 11.9 mph 71 % 0.0 in
10:58 16.9 °F 11.6 °F 1011.1 in SSW 5.1 mph 9.3 mph 71 % 0.0 in
11:03 17.0 °F 11.5 °F 1011.1 in South 5.5 mph 9.7 mph 70 % 0.0 in
11:08 17.1 °F 11.2 °F 1011.1 in SE 3.9 mph 9.7 mph 68 % 0.0 in
11:13 17.3 °F 11.6 °F 1011.1 in SSE 4.0 mph 10.5 mph 69 % 0.3 in
11:18 17.3 °F 11.1 °F 1011.1 in SSE 4.8 mph 10.5 mph 67 % 0.3 in
11:23 17.4 °F 10.7 °F 1011.1 in SE 5.0 mph 11.1 mph 65 % 0.3 in
11:28 17.5 °F 11.3 °F 1011.1 in ESE 4.8 mph 11.1 mph 67 % 0.3 in
11:33 17.8 °F 11.1 °F 1011.1 in ESE 4.3 mph 6.9 mph 65 % 0.3 in
11:38 17.9 °F 11.2 °F 1011.1 in East 4.0 mph 6.9 mph 65 % 0.3 in
11:43 17.9 °F 10.8 °F 1011.1 in NE 3.9 mph 7.9 mph 63 % 0.3 in
11:48 17.7 °F 10.1 °F 1011.1 in NE 5.1 mph 13.7 mph 61 % 0.3 in
11:53 17.6 °F 9.7 °F 1011.1 in NNE 5.8 mph 13.7 mph 60 % 0.3 in
11:58 17.5 °F 10.1 °F 1011.1 in WNW 5.3 mph 14.0 mph 62 % 0.3 in
12:03 17.6 °F 10.4 °F 1011.1 in West 4.2 mph 14.0 mph 63 % 0.3 in
12:08 17.5 °F 10.1 °F 1011.1 in West 3.5 mph 6.4 mph 62 % 0.3 in
12:13 17.5 °F 10.4 °F 1011.1 in West 3.4 mph 6.9 mph 63 % 0.0 in
12:18 17.5 °F 10.4 °F 1011.1 in West 1.9 mph 6.9 mph 63 % 0.0 in
12:23 17.5 °F 10.1 °F 1011.1 in West 3.5 mph 9.0 mph 62 % 0.0 in
12:28 17.6 °F 10.0 °F 1011.1 in SSW 5.0 mph 9.0 mph 61 % 0.0 in
12:33 17.7 °F 10.8 °F 1011.1 in ESE 4.8 mph 12.2 mph 64 % 0.0 in
12:38 17.7 °F 10.1 °F 1011.1 in ENE 5.8 mph 15.8 mph 61 % 0.0 in
12:43 17.7 °F 9.6 °F 1011.1 in ENE 6.3 mph 15.8 mph 59 % 0.0 in
12:48 17.6 °F 9.7 °F 1011.1 in NE 4.3 mph 12.2 mph 60 % 0.0 in
12:53 17.5 °F 8.6 °F 1011.1 in ENE 3.7 mph 9.3 mph 56 % 0.0 in
12:54 17.5 °F 8.6 °F 1011.1 in ENE 3.7 mph 9.3 mph 56 % 0.0 in
12:59 17.4 °F 8.8 °F 1011.1 in ENE 4.5 mph 10.5 mph 57 % 0.0 in
13:04 17.4 °F 8.8 °F 1011.1 in ENE 4.8 mph 10.5 mph 57 % 0.0 in
13:09 17.3 °F 8.4 °F 1011.1 in NNE 5.0 mph 11.9 mph 56 % 0.0 in
13:14 17.3 °F 8.2 °F 1011.1 in North 5.1 mph 11.9 mph 55 % 0.0 in
13:19 17.4 °F 8.3 °F 1011.1 in North 5.8 mph 11.9 mph 55 % 0.0 in
13:24 17.4 °F 8.3 °F 1012.1 in North 6.6 mph 11.9 mph 55 % 0.0 in
13:29 17.4 °F 8.3 °F 1012.1 in NNW 5.1 mph 11.6 mph 55 % 0.0 in
13:34 17.4 °F 8.3 °F 1012.1 in NNE 3.7 mph 8.7 mph 55 % 0.0 in
13:39 17.4 °F 8.0 °F 1012.1 in NNE 4.0 mph 8.7 mph 54 % 0.0 in
13:44 17.4 °F 8.0 °F 1012.1 in NNE 4.2 mph 7.6 mph 54 % 0.0 in
13:49 17.5 °F 8.1 °F 1012.1 in ENE 4.0 mph 10.5 mph 54 % 0.0 in
13:54 17.6 °F 8.2 °F 1012.1 in ESE 5.0 mph 11.6 mph 54 % 0.0 in
13:59 17.7 °F 8.6 °F 1012.1 in ESE 6.0 mph 11.9 mph 55 % 0.0 in
14:04 17.6 °F 8.4 °F 1012.1 in ENE 6.1 mph 11.9 mph 55 % 0.0 in
14:09 17.5 °F 8.1 °F 1012.1 in ENE 5.5 mph 10.1 mph 54 % 0.0 in
14:14 17.5 °F 8.1 °F 1012.1 in ENE 3.2 mph 7.9 mph 54 % 0.0 in
14:19 17.4 °F 8.0 °F 1012.1 in NNE 2.9 mph 6.4 mph 54 % 0.0 in
14:24 17.3 °F 8.2 °F 1012.1 in NNE 1.9 mph 6.1 mph 55 % 0.0 in
14:29 17.4 °F 8.3 °F 1012.1 in North 1.0 mph 5.0 mph 55 % 0.0 in
14:34 17.4 °F 8.5 °F 1012.1 in NNE 1.3 mph 4.7 mph 56 % 0.0 in
14:39 17.5 °F 8.9 °F 1012.1 in East 1.1 mph 5.0 mph 57 % 0.0 in
14:44 17.6 °F 8.7 °F 1012.1 in SSE 1.4 mph 5.0 mph 56 % 0.0 in
14:49 17.7 °F 9.1 °F 1012.1 in South 2.3 mph 4.3 mph 57 % 0.0 in
14:54 17.8 °F 8.9 °F 1012.1 in South 1.3 mph 4.3 mph 56 % 0.0 in
14:59 17.9 °F 9.0 °F 1012.1 in SE 0.8 mph 3.2 mph 56 % 0.0 in
15:04 17.9 °F 8.7 °F 1012.1 in SE 0.8 mph 3.2 mph 55 % 0.0 in
15:09 17.9 °F 8.7 °F 1012.1 in ESE 1.4 mph 6.4 mph 55 % 0.0 in
15:14 17.9 °F 9.0 °F 1012.1 in SE 2.6 mph 6.4 mph 56 % 0.0 in
15:19 17.9 °F 9.0 °F 1012.1 in SE 2.7 mph 5.5 mph 56 % 0.0 in
15:24 17.9 °F 9.3 °F 1012.1 in SE 2.9 mph 6.4 mph 57 % 0.0 in
15:29 17.9 °F 9.5 °F 1012.1 in ESE 1.8 mph 6.4 mph 58 % 0.0 in
15:34 17.9 °F 9.5 °F 1012.1 in NE 1.1 mph 4.3 mph 58 % 0.0 in
15:39 18.0 °F 9.3 °F 1012.1 in NE 1.4 mph 5.5 mph 57 % 0.0 in
15:44 18.4 °F 9.4 °F 1012.1 in East 1.6 mph 6.4 mph 56 % 0.0 in
15:49 18.7 °F 9.2 °F 1012.1 in East 3.2 mph 9.0 mph 54 % 0.0 in
15:54 18.9 °F 9.4 °F 1012.1 in East 4.0 mph 9.0 mph 54 % 0.0 in
15:55 18.9 °F 9.4 °F 1012.1 in East 4.0 mph 6.9 mph 54 % 0.0 in
16:00 18.9 °F 9.1 °F 1012.1 in ESE 2.6 mph 7.9 mph 53 % 0.0 in
16:05 19.2 °F 9.7 °F 1012.1 in ESE 3.7 mph 10.5 mph 54 % 0.0 in
16:10 19.6 °F 9.8 °F 1012.1 in ESE 4.5 mph 10.5 mph 53 % 0.0 in
16:15 19.9 °F 10.1 °F 1012.1 in ESE 3.4 mph 7.6 mph 53 % 0.0 in
16:20 20.2 °F 9.7 °F 1012.1 in ESE 5.0 mph 15.4 mph 51 % 0.0 in
16:25 20.3 °F 9.8 °F 1012.1 in ESE 5.8 mph 15.4 mph 51 % 0.0 in
16:30 20.4 °F 9.9 °F 1012.1 in ESE 4.3 mph 13.0 mph 51 % 0.0 in
16:35 20.2 °F 9.2 °F 1012.1 in East 5.3 mph 13.0 mph 49 % 0.0 in
16:40 19.8 °F 9.1 °F 1012.1 in East 6.1 mph 11.6 mph 50 % 0.0 in
16:45 19.5 °F 8.8 °F 1012.1 in ENE 4.8 mph 10.1 mph 50 % 0.0 in
16:50 19.3 °F 8.3 °F 1012.1 in NE 5.0 mph 12.6 mph 49 % 0.0 in
16:55 19.1 °F 8.1 °F 1012.1 in NNW 5.5 mph 12.6 mph 49 % 0.0 in
17:00 18.9 °F 8.2 °F 1012.1 in NNW 4.8 mph 13.7 mph 50 % 0.0 in
17:05 18.5 °F 8.4 °F 1012.1 in NW 5.3 mph 13.7 mph 52 % 0.0 in
17:10 18.3 °F 8.6 °F 1011.1 in WNW 5.8 mph 12.6 mph 53 % 0.0 in
17:15 18.0 °F 8.8 °F 1011.1 in WNW 4.8 mph 11.9 mph 55 % 0.0 in
17:20 17.8 °F 8.9 °F 1011.1 in WNW 3.7 mph 8.7 mph 56 % 0.0 in
17:25 17.7 °F 9.1 °F 1013.1 in West 3.2 mph 7.9 mph 57 % 0.0 in
17:30 17.4 °F 9.1 °F 1013.1 in WSW 3.4 mph 7.9 mph 58 % 0.0 in
17:35 17.2 °F 9.1 °F 1013.1 in WSW 2.7 mph 5.5 mph 59 % 0.0 in
17:40 17.0 °F 9.4 °F 1013.1 in SW 2.3 mph 5.5 mph 61 % 0.0 in
17:45 16.9 °F 10.1 °F 1013.1 in SSW 2.9 mph 6.4 mph 64 % 0.0 in
17:50 16.8 °F 10.2 °F 1013.1 in South 3.9 mph 6.4 mph 65 % 0.0 in
17:55 16.7 °F 10.3 °F 1012.1 in SSE 4.2 mph 6.4 mph 66 % 0.0 in
18:00 16.5 °F 10.3 °F 1012.1 in South 3.9 mph 6.1 mph 67 % 0.0 in
18:05 16.3 °F 10.6 °F 1012.1 in WSW 3.4 mph 6.1 mph 69 % 0.0 in
18:10 16.1 °F 10.6 °F 1012.1 in SSW 3.9 mph 6.9 mph 70 % 0.0 in
18:15 15.9 °F 10.4 °F 1012.1 in SSW 3.5 mph 6.9 mph 70 % 0.0 in
18:20 15.8 °F 10.8 °F 1012.1 in WSW 2.3 mph 5.5 mph 72 % 0.0 in
18:25 15.7 °F 10.9 °F 1013.1 in SW 1.1 mph 4.3 mph 73 % 0.0 in
18:31 15.6 °F 11.0 °F 1013.1 in SW 0.3 mph 2.6 mph 74 % 0.0 in
18:36 15.5 °F 10.9 °F 1013.1 in Calm   1.8 mph 74 % 0.0 in
18:41 15.4 °F 11.0 °F 1013.1 in WNW 0.2 mph 4.0 mph 75 % 0.0 in
18:46 15.4 °F 11.2 °F 1013.1 in WNW 1.3 mph 4.0 mph 76 % 0.0 in
18:51 15.4 °F 11.4 °F 1013.1 in WNW 1.1 mph 4.0 mph 77 % 0.0 in
18:56 15.3 °F 11.3 °F 1013.1 in WNW 1.4 mph 4.0 mph 77 % 0.0 in
19:00 15.2 °F 11.4 °F 1013.1 in WNW 2.4 mph 4.0 mph 78 % 0.0 in
19:05 15.2 °F 11.4 °F 1013.1 in WNW 2.3 mph 3.5 mph 78 % 0.0 in
19:10 15.1 °F 11.5 °F 1013.1 in WNW 1.0 mph 3.2 mph 79 % 0.0 in
19:15 15.1 °F 11.5 °F 1013.1 in NNW 0.5 mph 3.2 mph 79 % 0.0 in
19:20 14.9 °F 11.3 °F 1013.1 in NNW 0.6 mph 3.2 mph 79 % 0.0 in
19:25 14.8 °F 11.4 °F 1013.1 in NNE 0.5 mph 4.0 mph 80 % 0.0 in
19:30 14.6 °F 11.2 °F 1013.1 in West 1.0 mph 4.3 mph 80 % 0.0 in
19:35 14.4 °F 11.0 °F 1013.1 in WSW 0.8 mph 4.3 mph 80 % 0.0 in
19:40 14.3 °F 11.1 °F 1014.1 in Calm     81 % 0.0 in
19:45 14.2 °F 11.0 °F 1014.1 in Calm     81 % 0.0 in
19:48 14.2 °F 11.0 °F 1014.1 in Calm     81 % 0.0 in
19:53 14.1 °F 11.1 °F 1014.1 in Calm     82 % 0.0 in
19:58 14.0 °F 11.0 °F 1014.1 in Calm     82 % 0.0 in
20:03 14.0 °F 11.2 °F 1014.1 in West 1.8 mph 5.0 mph 83 % 0.0 in
20:08 14.0 °F 11.2 °F 1014.1 in West 2.1 mph 5.0 mph 83 % 0.0 in
20:13 14.0 °F 11.3 °F 1014.1 in West 0.6 mph 4.3 mph 84 % 0.0 in
20:18 14.0 °F 11.3 °F 1014.1 in Calm     84 % 0.0 in
20:23 14.0 °F 11.3 °F 1014.1 in SW 0.2 mph 3.2 mph 84 % 0.0 in
20:28 14.0 °F 11.3 °F 1014.1 in WSW 0.6 mph 3.2 mph 84 % 0.0 in
20:33 13.9 °F 11.4 °F 1014.1 in WSW 0.6 mph 2.6 mph 85 % 0.0 in
20:38 13.9 °F 11.6 °F 1014.1 in West 0.6 mph 3.5 mph 86 % 0.0 in
20:43 13.8 °F 11.5 °F 1014.1 in West 0.6 mph 3.5 mph 86 % 0.0 in
20:48 13.7 °F 11.4 °F 1014.1 in Calm     86 % 0.0 in
20:53 13.6 °F 11.3 °F 1014.1 in Calm     86 % 0.0 in
20:58 13.5 °F 11.4 °F 1015.1 in Calm     87 % 0.0 in
21:03 13.4 °F 11.3 °F 1015.1 in Calm     87 % 0.0 in
21:08 13.3 °F 11.2 °F 1015.1 in Calm     87 % 0.0 in
21:13 13.2 °F 11.3 °F 1014.1 in Calm     88 % 0.0 in
21:18 13.0 °F 11.1 °F 1014.1 in Calm     88 % 0.0 in
21:23 12.9 °F 10.9 °F 1014.1 in Calm     88 % 0.0 in
21:28 12.7 °F 10.8 °F 1013.1 in Calm     88 % 0.0 in
21:33 12.5 °F 10.6 °F 1013.1 in Calm     88 % 0.0 in
21:38 12.4 °F 10.6 °F 1013.1 in Calm     89 % 0.0 in
21:43 12.2 °F 10.3 °F 1013.1 in Calm     88 % 0.0 in
21:48 12.0 °F 10.1 °F 1013.1 in Calm     88 % 0.0 in
21:53 11.8 °F 10.1 °F 1014.1 in Calm     89 % 0.0 in
21:58 11.7 °F 9.9 °F 1014.1 in Calm     89 % 0.0 in
22:03 11.6 °F 9.8 °F 1014.1 in Calm     89 % 0.0 in
22:08 11.5 °F 9.7 °F 1013.1 in Calm     89 % 0.0 in
22:13 11.4 °F 9.7 °F 1013.1 in Calm     89 % 0.0 in
22:23 11.1 °F 9.5 °F 1014.1 in Calm     90 % 0.0 in
22:28 11.0 °F 9.4 °F 1014.1 in Calm     90 % 0.0 in
22:33 10.9 °F 9.3 °F 1014.1 in Calm     90 % 0.0 in
22:38 10.8 °F 9.2 °F 1014.1 in Calm     90 % 0.0 in
22:43 10.7 °F 9.3 °F 1014.1 in Calm     91 % 0.0 in
22:48 10.6 °F 9.2 °F 1014.1 in Calm     91 % 0.0 in
22:54 10.5 °F 9.1 °F 1014.1 in Calm     91 % 0.0 in
22:59 10.4 °F 9.0 °F 1014.1 in Calm     91 % 0.0 in
23:04 10.3 °F 8.9 °F 1014.1 in Calm     91 % 0.0 in
23:09 10.2 °F 8.8 °F 1014.1 in Calm     91 % 0.0 in
23:14 10.2 °F 8.8 °F 1014.1 in Calm     91 % 0.0 in
23:19 10.1 °F 8.7 °F 1014.1 in Calm     91 % 0.0 in
23:24 10.0 °F 8.6 °F 1015.1 in Calm     91 % 0.0 in
23:29 9.9 °F 8.7 °F 1015.1 in Calm     92 % 0.0 in
23:34 9.8 °F 8.6 °F 1015.1 in Calm     92 % 0.0 in
23:39 9.7 °F 8.4 °F 1014.1 in Calm     92 % 0.0 in
23:44 9.7 °F 8.4 °F 1014.1 in Calm     92 % 0.0 in
23:49 9.6 °F 8.4 °F 1014.1 in Calm     92 % 0.0 in
23:54 9.5 °F 8.3 °F 1014.1 in Calm     92 % 0.0 in
23:59 9.4 °F 8.2 °F 1014.1 in Calm     92 % 0.0 in
Vremenska postaja Senovo
Podatki zbrani iz Weather Underground - 3 mb

Script developed by  Jim McMurry - jmcmurry@mwt.net Adapted for the template by  Wim van der Kuil - Leuven-Template.eu

Vremenski podatki so objavljeni na:

European Weather Network

WeatherCloud

Weather Underground

AWEKAS

HAMweather, WeatherForYou, PWS Weather

MapView

Geostik

Slovenia weather network

Oprema, ki se uporablja:

Vremenski program
Cumulus

Vremenski server
Asus

Cumulus

Asus